createdAt,value
2023-05-10T04:31:32.966Z,20.5083
2023-05-10T04:32:35.035Z,20.9820
2023-05-10T04:33:37.042Z,21.2665
2023-05-10T04:34:39.169Z,21.5347
2023-05-10T04:35:41.194Z,21.7153
2023-05-10T04:36:43.201Z,21.9067
2023-05-10T04:37:45.884Z,22.0253
2023-05-10T04:38:47.283Z,22.1925
2023-05-10T04:39:51.897Z,22.3416
2023-05-10T04:40:51.379Z,22.3648
2023-05-10T04:41:53.439Z,22.3946
2023-05-10T04:42:55.466Z,22.4675
2023-05-10T04:43:57.510Z,22.5671
2023-05-10T04:44:59.596Z,22.6156
2023-05-10T04:46:01.614Z,22.6826
2023-05-10T04:47:03.643Z,22.6493
2023-05-10T04:48:05.777Z,22.8159
2023-05-10T04:49:07.723Z,22.8153
2023-05-10T04:50:09.751Z,22.8073
2023-05-10T04:51:11.800Z,22.8428
2023-05-10T04:52:13.861Z,22.8720
2023-05-10T04:53:16.056Z,22.9475
2023-05-10T04:54:17.941Z,22.9139
2023-05-10T04:55:19.988Z,22.9247
2023-05-10T04:56:22.025Z,22.9995
2023-05-10T04:57:24.066Z,23.0305
2023-05-10T04:58:26.104Z,23.0151
2023-05-10T04:59:28.211Z,23.0626
2023-05-10T05:00:30.189Z,23.1552
2023-05-10T05:01:32.319Z,23.1675
2023-05-10T05:02:34.371Z,23.0993
2023-05-10T05:03:36.342Z,23.0704
2023-05-10T05:04:38.365Z,23.1006
2023-05-10T05:05:40.410Z,23.1260
2023-05-10T05:06:42.467Z,23.1055
2023-05-10T05:07:44.492Z,23.1583
2023-05-10T05:08:46.528Z,23.1199
2023-05-10T05:09:48.584Z,23.1090
2023-05-10T05:10:50.698Z,23.0730
2023-05-10T05:11:52.681Z,23.0993
2023-05-10T05:12:54.731Z,23.1006
2023-05-10T05:13:56.740Z,23.1252
2023-05-10T05:14:58.800Z,23.1521
2023-05-10T05:16:00.857Z,23.1823
2023-05-10T05:17:02.881Z,23.1293
2023-05-10T05:18:04.994Z,23.1024
2023-05-10T05:19:06.971Z,23.1293
2023-05-10T05:20:09.024Z,23.1642
2023-05-10T05:21:11.072Z,23.1488
2023-05-10T05:22:13.114Z,23.1780
2023-05-10T05:23:15.142Z,23.2244
2023-05-10T05:24:17.194Z,23.1306
2023-05-10T05:25:19.244Z,23.0874
2023-05-10T05:26:21.301Z,23.1445
2023-05-10T05:27:23.326Z,23.1986
2023-05-10T05:28:25.377Z,23.1940
2023-05-10T05:29:27.442Z,23.1934
2023-05-10T05:30:29.443Z,23.1564
2023-05-10T05:31:31.558Z,23.0728
2023-05-10T05:32:33.724Z,23.1230
2023-05-10T05:33:37.531Z,23.1297
2023-05-10T05:34:37.639Z,23.1319
2023-05-10T05:35:40.478Z,23.1328
2023-05-10T05:36:41.731Z,23.1799
2023-05-10T05:37:43.788Z,23.2308
2023-05-10T05:38:45.802Z,23.2795
2023-05-10T05:39:47.957Z,23.2933
2023-05-10T05:40:50.045Z,23.3286
2023-05-10T05:41:51.960Z,23.3009
2023-05-10T05:42:53.986Z,23.3228
2023-05-10T05:43:56.043Z,23.3041
2023-05-10T05:44:58.059Z,23.3649
2023-05-10T05:46:00.202Z,23.3479
2023-05-10T05:47:02.284Z,23.3976
2023-05-10T05:48:04.359Z,23.4473
2023-05-10T05:49:06.306Z,23.4754
2023-05-10T05:50:08.355Z,23.4615
2023-05-10T05:51:12.063Z,23.5147
2023-05-10T05:52:12.400Z,23.5426
2023-05-10T05:53:31.400Z,23.5588
2023-05-10T05:54:17.803Z,23.5687
2023-05-10T05:55:20.552Z,23.5979
2023-05-10T05:56:20.614Z,23.6050
2023-05-10T05:57:22.630Z,23.6398
2023-05-10T05:58:24.671Z,23.6568
2023-05-10T05:59:26.757Z,23.6874
2023-05-10T06:00:31.513Z,23.7628
2023-05-10T06:01:31.361Z,23.7435
2023-05-10T06:02:32.946Z,23.7388
2023-05-10T06:03:35.032Z,23.7994
2023-05-10T06:04:36.994Z,23.8179
2023-05-10T06:05:39.009Z,23.7616
2023-05-10T06:06:42.009Z,23.7260
2023-05-10T06:07:43.906Z,23.7152
2023-05-10T06:08:45.121Z,23.6223
2023-05-10T06:09:47.201Z,23.7302
2023-05-10T06:10:49.227Z,23.6558
2023-05-10T06:11:51.323Z,23.6959
2023-05-10T06:12:53.419Z,23.7669
2023-05-10T06:13:55.408Z,23.7055
2023-05-10T06:14:57.460Z,23.7012
2023-05-10T06:15:59.490Z,23.7380
2023-05-10T06:17:01.830Z,23.7910
2023-05-10T06:18:06.688Z,23.7322
2023-05-10T06:19:06.764Z,23.6737
2023-05-10T06:20:07.664Z,23.6762
2023-05-10T06:21:09.691Z,23.6353
2023-05-10T06:22:12.729Z,23.6431
2023-05-10T06:23:13.809Z,23.5968
2023-05-10T06:24:14.308Z,23.6177
2023-05-10T06:25:20.527Z,23.6118
2023-05-10T06:26:20.058Z,23.5082
2023-05-10T06:27:21.992Z,23.4648
2023-05-10T06:28:27.057Z,23.3859
2023-05-10T06:29:26.068Z,23.3563
2023-05-10T06:30:28.120Z,23.1926
2023-05-10T06:31:30.220Z,23.2051
2023-05-10T06:32:32.266Z,23.1361
2023-05-10T06:33:34.336Z,23.2092
2023-05-10T06:34:36.315Z,23.2657
2023-05-10T06:35:38.348Z,23.1642
2023-05-10T06:36:40.390Z,23.2214
2023-05-10T06:37:42.447Z,23.1620
2023-05-10T06:38:44.467Z,23.0897
2023-05-10T06:39:46.526Z,23.0922
2023-05-10T06:40:48.580Z,23.0342
2023-05-10T06:41:50.603Z,23.0287
2023-05-10T06:42:52.692Z,23.0581
2023-05-10T06:43:54.865Z,23.0570
2023-05-10T06:44:56.729Z,23.0581
2023-05-10T06:45:58.847Z,23.1371
2023-05-10T06:47:00.846Z,23.2133
2023-05-10T06:48:04.577Z,23.1205
2023-05-10T06:49:04.937Z,23.0486
2023-05-10T06:50:07.028Z,23.0059
2023-05-10T06:51:09.043Z,22.9847
2023-05-10T06:52:11.164Z,22.9726
2023-05-10T06:53:13.104Z,23.0654
2023-05-10T06:54:15.191Z,23.1737
2023-05-10T06:55:17.455Z,23.1655
2023-05-10T06:56:19.261Z,23.1380
2023-05-10T06:57:31.169Z,23.1653
2023-05-10T06:58:23.328Z,23.1694
2023-05-10T06:59:25.452Z,23.1250
2023-05-10T07:00:27.473Z,23.1996
2023-05-10T07:01:29.493Z,23.2296
2023-05-10T07:02:31.545Z,23.1920
2023-05-10T07:03:33.613Z,23.2622
2023-05-10T07:04:35.693Z,23.2103
2023-05-10T07:05:37.860Z,23.2407
2023-05-10T07:06:39.734Z,23.2216
2023-05-10T07:07:41.767Z,23.1714
2023-05-10T07:08:43.820Z,23.1932
2023-05-10T07:09:45.869Z,23.2181
2023-05-10T07:10:47.909Z,23.2341
2023-05-10T07:11:49.942Z,23.1924
2023-05-10T07:12:52.226Z,23.2569
2023-05-10T07:13:56.063Z,23.2690
2023-05-10T07:14:56.096Z,23.2614
2023-05-10T07:15:58.123Z,23.2739
2023-05-10T07:17:00.296Z,23.2534
2023-05-10T07:18:02.288Z,23.2096
2023-05-10T07:19:04.270Z,23.3167
2023-05-10T07:20:06.388Z,23.3723
2023-05-10T07:21:08.354Z,23.4580
2023-05-10T07:22:10.404Z,23.4656
2023-05-10T07:23:12.445Z,23.4933
2023-05-10T07:24:14.511Z,23.5058
2023-05-10T07:25:16.623Z,23.4165
2023-05-10T07:26:18.617Z,23.4323
2023-05-10T07:27:20.605Z,23.5254
2023-05-10T07:28:22.688Z,23.3958
2023-05-10T07:29:24.764Z,23.4159
2023-05-10T07:30:26.780Z,23.3516
2023-05-10T07:31:28.893Z,23.2107
2023-05-10T07:32:30.886Z,23.2133
2023-05-10T07:33:32.964Z,23.1620
2023-05-10T07:34:34.966Z,23.0757
2023-05-10T07:35:37.100Z,23.1540
2023-05-10T07:36:39.034Z,23.1560
2023-05-10T07:37:41.112Z,23.1499
2023-05-10T07:38:43.136Z,23.1866
2023-05-10T07:39:45.216Z,23.1856
2023-05-10T07:40:47.207Z,23.1544
2023-05-10T07:41:49.279Z,23.2138
2023-05-10T07:42:51.322Z,23.2329
2023-05-10T07:43:53.360Z,23.2967
2023-05-10T07:44:55.399Z,23.2698
2023-05-10T07:45:57.470Z,23.2115
2023-05-10T07:46:59.484Z,23.1653
2023-05-10T07:48:01.553Z,23.2553
2023-05-10T07:49:03.591Z,23.3639
2023-05-10T07:50:07.874Z,23.4007
2023-05-10T07:51:07.688Z,23.4942
2023-05-10T07:52:09.747Z,23.4085
2023-05-10T07:53:11.852Z,23.3742
2023-05-10T07:54:13.870Z,23.3428
2023-05-10T07:55:16.096Z,23.2838
2023-05-10T07:56:18.513Z,23.2803
2023-05-10T07:57:20.007Z,23.2815
2023-05-10T07:58:24.047Z,23.3177
2023-05-10T07:59:25.971Z,23.2503
2023-05-10T08:00:26.126Z,23.1858
2023-05-10T08:01:28.142Z,23.2935
2023-05-10T08:02:30.343Z,23.2945
2023-05-10T08:03:32.487Z,23.2201
2023-05-10T08:04:34.322Z,23.2255
2023-05-10T08:05:36.349Z,23.2333
2023-05-10T08:06:38.399Z,23.2598
2023-05-10T08:07:40.412Z,23.2643
2023-05-10T08:08:42.543Z,23.2857
2023-05-10T08:09:44.532Z,23.2491
2023-05-10T08:10:46.603Z,23.2041
2023-05-10T08:11:49.113Z,23.1154
2023-05-10T08:12:50.769Z,23.0244
2023-05-10T08:13:53.495Z,23.0476
2023-05-10T08:14:56.488Z,23.0285
2023-05-10T08:15:57.082Z,22.9845
2023-05-10T08:17:11.632Z,23.0235
2023-05-10T08:18:00.973Z,23.0254
2023-05-10T08:19:04.319Z,23.0595
2023-05-10T08:20:05.339Z,22.9688
2023-05-10T08:21:07.051Z,23.1646
2023-05-10T08:22:09.087Z,23.1201
2023-05-10T08:23:11.120Z,23.1821
2023-05-10T08:24:13.280Z,23.2579
2023-05-10T08:25:18.155Z,23.2318
2023-05-10T08:26:17.276Z,23.2334
2023-05-10T08:27:19.460Z,23.2641
2023-05-10T08:28:21.461Z,23.3487
2023-05-10T08:29:23.366Z,23.3179
2023-05-10T08:30:25.453Z,23.3068
2023-05-10T08:31:27.894Z,23.3315
2023-05-10T08:32:29.556Z,23.3317
2023-05-10T08:33:31.608Z,23.2598
2023-05-10T08:34:34.541Z,23.2172
2023-05-10T08:35:35.768Z,23.3117
2023-05-10T08:36:37.783Z,23.3929
2023-05-10T08:37:40.228Z,23.4582
2023-05-10T08:38:41.872Z,23.4549
2023-05-10T08:39:43.950Z,23.4861
2023-05-10T08:40:46.132Z,23.5188
2023-05-10T08:41:49.004Z,23.5198
2023-05-10T08:42:50.220Z,23.4582
2023-05-10T08:43:55.109Z,23.5132
2023-05-10T08:44:54.182Z,23.4286
2023-05-10T08:45:56.244Z,23.3538
2023-05-10T08:46:58.268Z,23.3253
2023-05-10T08:48:00.440Z,23.3935
2023-05-10T08:49:02.342Z,23.4307
2023-05-10T08:50:04.377Z,23.4592
2023-05-10T08:51:06.552Z,23.4516
2023-05-10T08:52:08.609Z,23.3937
2023-05-10T08:53:10.702Z,23.3526
2023-05-10T08:54:12.553Z,23.4192
2023-05-10T08:55:14.739Z,23.3604
2023-05-10T08:56:16.730Z,23.3881
2023-05-10T08:57:18.755Z,23.4331
2023-05-10T08:58:20.802Z,23.5015
2023-05-10T08:59:22.919Z,23.5749
2023-05-10T09:00:26.097Z,23.6116
2023-05-10T09:01:29.603Z,23.4370
2023-05-10T09:02:29.566Z,23.4625
2023-05-10T09:03:30.947Z,23.5297
2023-05-10T09:04:33.052Z,23.5759
2023-05-10T09:05:37.124Z,23.5858
2023-05-10T09:06:38.033Z,23.6211
2023-05-10T09:07:40.217Z,23.6268
2023-05-10T09:08:41.188Z,23.4360
2023-05-10T09:09:44.626Z,23.3881
2023-05-10T09:10:49.222Z,23.4730
2023-05-10T09:11:47.361Z,23.3871
2023-05-10T09:13:05.114Z,23.2429
2023-05-10T09:13:52.215Z,23.3462
2023-05-10T09:14:53.457Z,23.2772
2023-05-10T09:16:00.328Z,23.3257
2023-05-10T09:16:57.612Z,23.3121
2023-05-10T09:18:01.499Z,23.3660
2023-05-10T09:19:01.665Z,23.4906
2023-05-10T09:20:03.729Z,23.5058
2023-05-10T09:21:05.714Z,23.4526
2023-05-10T09:22:08.579Z,23.5063
2023-05-10T09:23:09.805Z,23.4613
2023-05-10T09:24:11.846Z,23.5609
2023-05-10T09:25:14.801Z,23.5169
2023-05-10T09:26:15.984Z,23.4954
2023-05-10T09:27:17.995Z,23.5233
2023-05-10T09:28:20.114Z,23.4720
2023-05-10T09:29:22.130Z,23.3972
2023-05-10T09:30:24.274Z,23.3475
2023-05-10T09:31:26.359Z,23.3506
2023-05-10T09:32:28.310Z,23.2713
2023-05-10T09:33:30.291Z,23.2439
2023-05-10T09:34:35.666Z,23.3360
2023-05-10T09:35:34.354Z,23.3715
2023-05-10T09:36:36.389Z,23.3641
2023-05-10T09:37:39.016Z,23.3781
2023-05-10T09:38:40.472Z,23.3619
2023-05-10T09:39:42.534Z,23.3754
2023-05-10T09:40:44.656Z,23.2244
2023-05-10T09:41:46.587Z,23.2893
2023-05-10T09:42:48.653Z,23.4233
2023-05-10T09:43:50.661Z,23.3842
2023-05-10T09:44:52.732Z,23.3695
2023-05-10T09:45:54.866Z,23.3130
2023-05-10T09:46:57.377Z,23.3054
2023-05-10T09:47:58.951Z,23.2583
2023-05-10T09:49:00.927Z,23.3405
2023-05-10T09:50:02.928Z,23.4149
2023-05-10T09:51:05.083Z,23.5040
2023-05-10T09:52:07.116Z,23.5252
2023-05-10T09:53:09.057Z,23.5662
2023-05-10T09:54:11.134Z,23.6057
2023-05-10T09:55:13.157Z,23.4420
2023-05-10T09:56:15.222Z,23.4674
2023-05-10T09:57:17.264Z,23.4913
2023-05-10T09:58:19.416Z,23.5461
2023-05-10T09:59:21.299Z,23.5956
2023-05-10T10:00:23.430Z,23.6420
2023-05-10T10:01:25.473Z,23.6178
2023-05-10T10:02:27.521Z,23.6309
2023-05-10T10:03:30.413Z,23.6494
2023-05-10T10:04:31.684Z,23.6118
2023-05-10T10:05:33.614Z,23.6585
2023-05-10T10:06:35.635Z,23.6118
2023-05-10T10:07:37.686Z,23.5009
2023-05-10T10:08:39.737Z,23.4578
2023-05-10T10:09:41.785Z,23.3000
2023-05-10T10:10:43.798Z,23.2686
2023-05-10T10:11:46.106Z,23.0983
2023-05-10T10:12:47.921Z,23.0985
2023-05-10T10:13:49.971Z,23.2070
2023-05-10T10:14:51.982Z,23.2351
2023-05-10T10:15:54.075Z,23.1739
2023-05-10T10:17:06.407Z,23.1589
2023-05-10T10:17:58.143Z,23.1427
2023-05-10T10:19:00.438Z,23.0164
2023-05-10T10:20:02.192Z,22.9660
2023-05-10T10:21:04.417Z,23.0104
2023-05-10T10:22:06.309Z,22.9878
2023-05-10T10:23:08.294Z,23.0975
2023-05-10T10:24:10.394Z,23.1478
2023-05-10T10:25:12.402Z,23.2526
2023-05-10T10:26:14.429Z,23.2783
2023-05-10T10:27:16.541Z,23.3241
2023-05-10T10:28:18.853Z,23.3462
2023-05-10T10:29:20.561Z,23.3894
2023-05-10T10:30:22.622Z,23.3834
2023-05-10T10:31:24.697Z,23.2086
2023-05-10T10:32:26.782Z,23.2815
2023-05-10T10:33:29.252Z,23.2448
2023-05-10T10:34:30.816Z,23.2279
2023-05-10T10:35:32.879Z,23.1907
2023-05-10T10:36:34.931Z,23.1562
2023-05-10T10:37:37.028Z,23.1630
2023-05-10T10:38:39.066Z,23.1998
2023-05-10T10:39:41.031Z,23.1417
2023-05-10T10:40:43.069Z,23.1028
2023-05-10T10:41:45.141Z,23.2534
2023-05-10T10:42:47.187Z,23.1480
2023-05-10T10:43:49.206Z,23.2608
2023-05-10T10:44:51.251Z,23.3518
2023-05-10T10:45:53.302Z,23.4430
2023-05-10T10:46:55.361Z,23.4972
2023-05-10T10:47:57.474Z,23.4619
2023-05-10T10:48:59.484Z,23.4276
2023-05-10T10:50:01.592Z,23.4919
2023-05-10T10:51:03.523Z,23.5447
2023-05-10T10:52:05.580Z,23.6689
2023-05-10T10:53:07.779Z,23.5800
2023-05-10T10:54:09.671Z,23.3877
2023-05-10T10:55:11.753Z,23.3783
2023-05-10T10:56:13.742Z,23.5058
2023-05-10T10:57:15.883Z,23.5995
2023-05-10T10:58:17.842Z,23.6215
2023-05-10T10:59:19.858Z,23.7396
2023-05-10T11:00:21.968Z,23.6800
2023-05-10T11:01:23.998Z,23.6848
2023-05-10T11:02:26.122Z,23.5350
2023-05-10T11:03:28.057Z,23.5541
2023-05-10T11:04:30.155Z,23.3596
2023-05-10T11:05:32.222Z,23.3483
2023-05-10T11:06:34.256Z,23.2696
2023-05-10T11:07:36.208Z,23.1834
2023-05-10T11:08:39.074Z,23.1988
2023-05-10T11:09:40.400Z,23.2972
2023-05-10T11:10:42.328Z,23.2263
2023-05-10T11:11:44.435Z,23.1394
2023-05-10T11:12:46.448Z,23.1059
2023-05-10T11:13:50.955Z,23.2372
2023-05-10T11:14:50.760Z,23.2209
2023-05-10T11:15:52.640Z,23.1548
2023-05-10T11:16:54.688Z,23.1468
2023-05-10T11:17:58.647Z,23.1170
2023-05-10T11:18:58.863Z,23.1509
2023-05-10T11:20:00.802Z,23.2481
2023-05-10T11:21:02.836Z,23.1891
2023-05-10T11:22:04.854Z,23.3212
2023-05-10T11:23:06.908Z,23.3982
2023-05-10T11:24:08.941Z,23.4623
2023-05-10T11:25:11.016Z,23.4995
2023-05-10T11:26:13.557Z,23.4058
2023-05-10T11:27:16.382Z,23.3497
2023-05-10T11:28:17.119Z,23.3561
2023-05-10T11:29:19.172Z,23.3596
2023-05-10T11:30:21.288Z,23.3571
2023-05-10T11:31:23.324Z,23.3713
2023-05-10T11:32:25.382Z,23.3720
2023-05-10T11:33:27.339Z,23.3752
2023-05-10T11:34:29.388Z,23.4438
2023-05-10T11:35:31.447Z,23.3953
2023-05-10T11:36:33.581Z,23.4251
2023-05-10T11:37:35.514Z,23.5190
2023-05-10T11:38:37.685Z,23.5198
2023-05-10T11:39:39.661Z,23.4559
2023-05-10T11:40:41.661Z,23.4931
2023-05-10T11:41:43.731Z,23.4366
2023-05-10T11:42:45.823Z,23.4549
2023-05-10T11:43:47.821Z,23.5058
2023-05-10T11:44:49.851Z,23.4344
2023-05-10T11:45:52.061Z,23.3633
2023-05-10T11:46:53.937Z,23.4190
2023-05-10T11:47:56.045Z,23.3313
2023-05-10T11:48:58.146Z,23.3594
2023-05-10T11:50:00.147Z,23.3832
2023-05-10T11:51:02.267Z,23.2978
2023-05-10T11:52:04.280Z,23.3791
2023-05-10T11:53:06.296Z,23.5093
2023-05-10T11:54:08.284Z,23.5079
2023-05-10T11:55:10.339Z,23.4052
2023-05-10T11:56:12.427Z,23.5005
2023-05-10T11:57:14.408Z,23.5818
2023-05-10T11:58:16.493Z,23.6083
2023-05-10T11:59:18.509Z,23.6010
2023-05-10T12:00:20.594Z,23.5749
2023-05-10T12:01:22.659Z,23.5095
2023-05-10T12:02:24.705Z,23.4703
2023-05-10T12:03:26.809Z,23.4855
2023-05-10T12:04:28.977Z,23.3407
2023-05-10T12:05:30.828Z,23.4286
2023-05-10T12:06:32.987Z,23.3588
2023-05-10T12:07:35.026Z,23.3551
2023-05-10T12:08:36.935Z,23.4222
2023-05-10T12:09:43.828Z,23.3803
2023-05-10T12:10:41.013Z,23.3814
2023-05-10T12:11:44.318Z,23.3493
2023-05-10T12:12:45.494Z,23.3397
2023-05-10T12:13:49.076Z,23.3269
2023-05-10T12:14:49.193Z,23.3183
2023-05-10T12:15:51.269Z,23.3682
2023-05-10T12:16:53.608Z,23.4878
2023-05-10T12:17:55.480Z,23.5558
2023-05-10T12:18:57.448Z,23.6258
2023-05-10T12:19:59.518Z,23.6570
2023-05-10T12:21:01.502Z,23.7392
2023-05-10T12:22:03.565Z,23.7067
2023-05-10T12:23:05.612Z,23.6987
2023-05-10T12:24:10.007Z,23.7400
2023-05-10T12:25:09.681Z,23.7723
2023-05-10T12:26:11.828Z,23.7640
2023-05-10T12:27:13.795Z,23.7470
2023-05-10T12:28:15.810Z,23.7238
2023-05-10T12:29:19.685Z,23.7150
2023-05-10T12:30:20.625Z,23.8024
2023-05-10T12:31:22.049Z,23.7380
2023-05-10T12:32:24.032Z,23.8327
2023-05-10T12:33:26.077Z,23.8433
2023-05-10T12:34:29.610Z,23.8555
2023-05-10T12:35:31.153Z,23.7916
2023-05-10T12:36:32.314Z,23.7076
2023-05-10T12:37:34.271Z,23.5580
2023-05-10T12:38:36.416Z,23.4872
2023-05-10T12:39:38.498Z,23.5375
2023-05-10T12:40:42.223Z,23.6211
2023-05-10T12:41:43.721Z,23.5184
2023-05-10T12:42:45.124Z,23.4561
2023-05-10T12:43:46.670Z,23.5611
2023-05-10T12:44:48.691Z,23.6324
2023-05-10T12:45:50.878Z,23.7312
2023-05-10T12:46:52.749Z,23.8014
2023-05-10T12:47:55.271Z,23.7745
2023-05-10T12:49:08.103Z,23.6946
2023-05-10T12:50:11.143Z,23.6205
2023-05-10T12:51:02.664Z,23.5255
2023-05-10T12:52:03.012Z,23.5498
2023-05-10T12:53:05.036Z,23.5385
2023-05-10T12:54:07.113Z,23.5773
2023-05-10T12:55:09.176Z,23.5467
2023-05-10T12:56:11.272Z,23.5266
2023-05-10T12:57:13.208Z,23.5229
2023-05-10T12:58:27.785Z,23.5556
2023-05-10T12:59:17.375Z,23.4611
2023-05-10T13:00:19.389Z,23.4572
2023-05-10T13:01:21.515Z,23.3945
2023-05-10T13:02:23.498Z,23.3633
2023-05-10T13:03:25.544Z,23.3771
2023-05-10T13:04:27.602Z,23.4689
2023-05-10T13:05:29.587Z,23.4937
2023-05-10T13:06:31.773Z,23.4081
2023-05-10T13:07:33.681Z,23.3269
2023-05-10T13:08:36.293Z,23.3976
2023-05-10T13:09:37.781Z,23.3822
2023-05-10T13:10:39.842Z,23.3927
2023-05-10T13:11:41.848Z,23.2904
2023-05-10T13:12:43.904Z,23.3391
2023-05-10T13:13:45.940Z,23.3440
2023-05-10T13:14:48.009Z,23.3949
2023-05-10T13:15:50.009Z,23.4964
2023-05-10T13:16:52.112Z,23.4379
2023-05-10T13:17:54.157Z,23.3960
2023-05-10T13:18:56.169Z,23.3867
2023-05-10T13:19:58.254Z,23.3662
2023-05-10T13:21:00.240Z,23.4292
2023-05-10T13:22:02.286Z,23.4960
2023-05-10T13:23:04.336Z,23.4800
2023-05-10T13:24:06.437Z,23.4559
2023-05-10T13:25:08.431Z,23.4878
2023-05-10T13:26:11.099Z,23.5381
2023-05-10T13:27:13.098Z,23.6412
2023-05-10T13:28:14.564Z,23.7022
2023-05-10T13:29:16.783Z,23.7283
2023-05-10T13:30:18.858Z,23.7659
2023-05-10T13:31:20.720Z,23.7369
2023-05-10T13:32:22.756Z,23.7930
2023-05-10T13:33:24.822Z,23.8497
2023-05-10T13:34:26.844Z,23.8442
2023-05-10T13:35:30.057Z,23.8955
2023-05-10T13:36:30.971Z,23.9467
2023-05-10T13:37:32.951Z,23.8629
2023-05-10T13:38:35.020Z,23.7560
2023-05-10T13:39:37.053Z,23.7106
2023-05-10T13:40:39.166Z,23.6753
2023-05-10T13:41:41.146Z,23.5987
2023-05-10T13:42:43.221Z,23.6040
2023-05-10T13:43:45.295Z,23.5328
2023-05-10T13:44:47.326Z,23.5428
2023-05-10T13:45:49.360Z,23.6301
2023-05-10T13:46:52.261Z,23.6841
2023-05-10T13:47:53.868Z,23.7187
2023-05-10T13:48:55.492Z,23.7971
2023-05-10T13:49:59.151Z,23.8298
2023-05-10T13:50:59.550Z,23.7864
2023-05-10T13:52:01.624Z,23.8425
2023-05-10T13:53:03.678Z,23.8967
2023-05-10T13:54:05.734Z,23.8781
2023-05-10T13:55:07.913Z,23.7304
2023-05-10T13:56:41.270Z,23.7304
2023-05-10T13:57:16.248Z,23.7343
2023-05-10T13:58:16.117Z,23.8253
2023-05-10T13:59:16.038Z,23.8444
2023-05-10T14:00:18.008Z,23.8575
2023-05-10T14:01:20.194Z,23.8456
2023-05-10T14:02:22.284Z,23.8629
2023-05-10T14:03:24.275Z,23.8008
2023-05-10T14:04:26.226Z,23.7778
2023-05-10T14:05:28.469Z,23.6342
2023-05-10T14:06:30.236Z,23.6135
2023-05-10T14:07:32.281Z,23.5890
2023-05-10T14:08:34.371Z,23.4742
2023-05-10T14:09:36.385Z,23.5806
2023-05-10T14:10:40.255Z,23.6340
2023-05-10T14:11:40.525Z,23.7316
2023-05-10T14:12:42.528Z,23.7753
2023-05-10T14:13:44.578Z,23.6178
2023-05-10T14:14:47.318Z,23.6819
2023-05-10T14:15:48.648Z,23.6773
2023-05-10T14:16:50.910Z,23.5083
2023-05-10T14:17:52.797Z,23.5689
2023-05-10T14:18:54.796Z,23.7702
2023-05-10T14:19:56.853Z,23.8101
2023-05-10T14:20:59.353Z,23.7445
2023-05-10T14:22:00.948Z,23.7714
2023-05-10T14:23:02.965Z,23.7908
2023-05-10T14:24:04.981Z,23.8060
2023-05-10T14:25:07.623Z,23.8594
2023-05-10T14:26:09.318Z,23.9070
2023-05-10T14:27:11.321Z,23.9056
2023-05-10T14:28:13.284Z,23.7926
2023-05-10T14:29:15.200Z,23.6798
2023-05-10T14:30:17.309Z,23.6170
2023-05-10T14:31:19.744Z,23.5171
2023-05-10T14:32:21.424Z,23.4301
2023-05-10T14:33:23.627Z,23.4607
2023-05-10T14:34:25.519Z,23.5036
2023-05-10T14:35:27.473Z,23.6162
2023-05-10T14:36:31.207Z,23.6802
2023-05-10T14:37:31.639Z,23.7441
2023-05-10T14:38:33.660Z,23.8848
2023-05-10T14:39:35.689Z,23.7945
2023-05-10T14:40:37.720Z,23.6786
2023-05-10T14:41:42.662Z,23.7004
2023-05-10T14:42:41.761Z,23.7309
2023-05-10T14:43:43.822Z,23.6601
2023-05-10T14:44:45.881Z,23.6174
2023-05-10T14:45:47.950Z,23.5480
2023-05-10T14:46:50.076Z,23.6299
2023-05-10T14:47:53.764Z,23.6135
2023-05-10T14:48:54.062Z,23.4666
2023-05-10T14:49:56.089Z,23.4828
2023-05-10T14:50:58.172Z,23.5634
2023-05-10T14:52:00.367Z,23.4003
2023-05-10T14:53:03.728Z,23.5812
2023-05-10T14:54:04.285Z,23.5782
2023-05-10T14:55:06.930Z,23.5646
2023-05-10T14:56:08.402Z,23.5685
2023-05-10T14:57:10.396Z,23.4709
2023-05-10T14:58:12.507Z,23.3382
2023-05-10T14:59:14.515Z,23.3555
2023-05-10T15:00:16.772Z,23.3729
2023-05-10T15:01:18.582Z,23.3514
2023-05-10T15:02:20.709Z,23.3495
2023-05-10T15:03:22.820Z,23.4559
2023-05-10T15:04:25.964Z,23.4853
2023-05-10T15:05:26.857Z,23.5028
2023-05-10T15:06:28.777Z,23.5159
2023-05-10T15:07:30.986Z,23.5769
2023-05-10T15:08:32.920Z,23.5794
2023-05-10T15:09:34.913Z,23.6244
2023-05-10T15:10:36.926Z,23.6040
2023-05-10T15:11:39.071Z,23.6221
2023-05-10T15:12:41.045Z,23.5899
2023-05-10T15:13:43.090Z,23.6774
2023-05-10T15:14:45.102Z,23.8144
2023-05-10T15:15:47.204Z,23.6546
2023-05-10T15:16:49.212Z,23.6689
2023-05-10T15:17:51.425Z,23.6946
2023-05-10T15:18:53.364Z,23.6687
2023-05-10T15:19:55.358Z,23.6959
2023-05-10T15:20:57.458Z,23.7119
2023-05-10T15:21:59.524Z,23.6242
2023-05-10T15:23:01.503Z,23.6581
2023-05-10T15:24:03.526Z,23.6502
2023-05-10T15:25:05.624Z,23.5909
2023-05-10T15:26:07.667Z,23.5574
2023-05-10T15:27:09.693Z,23.5134
2023-05-10T15:28:12.661Z,23.4432
2023-05-10T15:29:13.736Z,23.5447
2023-05-10T15:30:15.851Z,23.6083
2023-05-10T15:31:17.857Z,23.5934
2023-05-10T15:32:19.910Z,23.4582
2023-05-10T15:33:22.608Z,23.5112
2023-05-10T15:34:24.029Z,23.4424
2023-05-10T15:35:26.516Z,23.4541
2023-05-10T15:36:28.063Z,23.3674
2023-05-10T15:37:30.117Z,23.4711
2023-05-10T15:38:32.129Z,23.4896
2023-05-10T15:39:34.209Z,23.5759
2023-05-10T15:40:36.241Z,23.6114
2023-05-10T15:41:38.271Z,23.6568
2023-05-10T15:42:40.346Z,23.5952
2023-05-10T15:43:42.571Z,23.5003
2023-05-10T15:44:44.461Z,23.6398
2023-05-10T15:45:46.454Z,23.6040
2023-05-10T15:46:49.438Z,23.5964
2023-05-10T15:47:50.624Z,23.7018
2023-05-10T15:48:52.656Z,23.5535
2023-05-10T15:49:55.071Z,23.5426
2023-05-10T15:50:56.740Z,23.5827
2023-05-10T15:51:58.709Z,23.6309
2023-05-10T15:53:00.934Z,23.5445
2023-05-10T15:54:07.625Z,23.6145
2023-05-10T15:55:04.921Z,23.6223
2023-05-10T15:56:06.917Z,23.6539
2023-05-10T15:57:09.024Z,23.6850
2023-05-10T15:58:13.618Z,23.7271
2023-05-10T15:59:13.035Z,23.7398
2023-05-10T16:00:15.104Z,23.7517
2023-05-10T16:01:17.202Z,23.6556
2023-05-10T16:02:19.241Z,23.6439
2023-05-10T16:03:21.259Z,23.7143
2023-05-10T16:04:23.274Z,23.7041
2023-05-10T16:05:25.346Z,23.6525
2023-05-10T16:06:27.417Z,23.6151
2023-05-10T16:07:29.588Z,23.6375
2023-05-10T16:08:36.697Z,23.6505
2023-05-10T16:09:33.629Z,23.6155
2023-05-10T16:10:35.565Z,23.6281
2023-05-10T16:11:37.785Z,23.6018
2023-05-10T16:12:39.726Z,23.7035
2023-05-10T16:13:41.711Z,23.7349
2023-05-10T16:14:43.740Z,23.7369
2023-05-10T16:15:45.927Z,23.6135
2023-05-10T16:16:47.924Z,23.5956
2023-05-10T16:17:50.108Z,23.5662
2023-05-10T16:18:52.242Z,23.5549
2023-05-10T16:19:54.005Z,23.4929
2023-05-10T16:20:56.023Z,23.4629
2023-05-10T16:21:58.490Z,23.4888
2023-05-10T16:23:00.127Z,23.5975
2023-05-10T16:24:02.177Z,23.6675
2023-05-10T16:25:04.211Z,23.7345
2023-05-10T16:26:06.267Z,23.5792
2023-05-10T16:27:08.278Z,23.5286
2023-05-10T16:28:10.420Z,23.4407
2023-05-10T16:29:12.410Z,23.4496
2023-05-10T16:30:14.408Z,23.3894
2023-05-10T16:31:16.464Z,23.4584
2023-05-10T16:32:18.524Z,23.4798
2023-05-10T16:33:20.630Z,23.4991
2023-05-10T16:34:22.596Z,23.5056
2023-05-10T16:35:24.654Z,23.5229
2023-05-10T16:36:26.892Z,23.5297
2023-05-10T16:37:28.838Z,23.5490
2023-05-10T16:38:30.754Z,23.5985
2023-05-10T16:39:32.833Z,23.5588
2023-05-10T16:40:43.677Z,23.4553
2023-05-10T16:41:36.874Z,23.3866
2023-05-10T16:42:38.977Z,23.3395
2023-05-10T16:43:41.059Z,23.3606
2023-05-10T16:44:43.112Z,23.2676
2023-05-10T16:45:45.762Z,23.3167
2023-05-10T16:46:47.738Z,23.3200
2023-05-10T16:47:49.300Z,23.4646
2023-05-10T16:48:51.308Z,23.5114
2023-05-10T16:49:53.305Z,23.5642
2023-05-10T16:50:55.409Z,23.6159
2023-05-10T16:51:57.416Z,23.6872
2023-05-10T16:52:59.577Z,23.6716
2023-05-10T16:54:01.523Z,23.6149
2023-05-10T16:55:03.602Z,23.6180
2023-05-10T16:56:05.564Z,23.4060
2023-05-10T16:57:07.583Z,23.3216
2023-05-10T16:58:09.643Z,23.2072
2023-05-10T16:59:11.822Z,23.4220
2023-05-10T17:00:14.769Z,23.5058
2023-05-10T17:01:15.820Z,23.5005